sensor_id;sensor_type;location;lat;lon;timestamp;pressure;altitude;pressure_sealevel;temperature;humidity
68889;BME280;55930;47.412;8.790;2023-12-20T00:01:13;94776.53;;;2.44;100.00
68889;BME280;55930;47.412;8.790;2023-12-20T00:04:33;94769.19;;;2.35;100.00
68889;BME280;55930;47.412;8.790;2023-12-20T00:07:54;94772.41;;;2.43;100.00
68889;BME280;55930;47.412;8.790;2023-12-20T00:11:14;94768.31;;;2.42;100.00
68889;BME280;55930;47.412;8.790;2023-12-20T00:14:34;94772.94;;;2.34;100.00
68889;BME280;55930;47.412;8.790;2023-12-20T00:17:57;94781.91;;;2.33;100.00
68889;BME280;55930;47.412;8.790;2023-12-20T00:21:17;94792.06;;;2.31;100.00
68889;BME280;55930;47.412;8.790;2023-12-20T00:24:38;94787.50;;;2.35;100.00
68889;BME280;55930;47.412;8.790;2023-12-20T00:27:58;94784.31;;;2.47;100.00
68889;BME280;55930;47.412;8.790;2023-12-20T00:31:18;94762.97;;;2.49;100.00
68889;BME280;55930;47.412;8.790;2023-12-20T00:34:39;94746.94;;;2.47;100.00
68889;BME280;55930;47.412;8.790;2023-12-20T00:37:59;94744.72;;;2.45;100.00
68889;BME280;55930;47.412;8.790;2023-12-20T00:41:19;94727.13;;;2.46;100.00
68889;BME280;55930;47.412;8.790;2023-12-20T00:44:42;94723.03;;;2.45;100.00
68889;BME280;55930;47.412;8.790;2023-12-20T00:48:03;94719.06;;;2.56;100.00
68889;BME280;55930;47.412;8.790;2023-12-20T00:51:23;94705.56;;;2.58;100.00
68889;BME280;55930;47.412;8.790;2023-12-20T00:54:45;94723.09;;;2.61;100.00
68889;BME280;55930;47.412;8.790;2023-12-20T00:58:05;94726.50;;;2.58;100.00
68889;BME280;55930;47.412;8.790;2023-12-20T01:01:28;94729.28;;;2.71;100.00
68889;BME280;55930;47.412;8.790;2023-12-20T01:04:48;94715.19;;;2.84;100.00
68889;BME280;55930;47.412;8.790;2023-12-20T01:08:09;94721.56;;;2.83;100.00
68889;BME280;55930;47.412;8.790;2023-12-20T01:11:29;94720.47;;;2.81;100.00
68889;BME280;55930;47.412;8.790;2023-12-20T01:14:49;94720.47;;;2.81;100.00
68889;BME280;55930;47.412;8.790;2023-12-20T01:18:16;94717.19;;;2.77;100.00
68889;BME280;55930;47.412;8.790;2023-12-20T01:21:41;94708.25;;;2.74;100.00
68889;BME280;55930;47.412;8.790;2023-12-20T01:25:04;94705.50;;;2.81;100.00
68889;BME280;55930;47.412;8.790;2023-12-20T01:28:25;94722.44;;;2.77;100.00
68889;BME280;55930;47.412;8.790;2023-12-20T01:31:45;94727.41;;;2.91;100.00
68889;BME280;55930;47.412;8.790;2023-12-20T01:35:06;94728.88;;;2.92;100.00
68889;BME280;55930;47.412;8.790;2023-12-20T01:38:26;94728.06;;;2.95;100.00
68889;BME280;55930;47.412;8.790;2023-12-20T01:41:47;94733.44;;;3.07;100.00
68889;BME280;55930;47.412;8.790;2023-12-20T01:45:08;94733.38;;;3.11;100.00
68889;BME280;55930;47.412;8.790;2023-12-20T01:48:29;94730.13;;;3.23;100.00
68889;BME280;55930;47.412;8.790;2023-12-20T01:51:50;94727.97;;;3.18;100.00
68889;BME280;55930;47.412;8.790;2023-12-20T01:55:10;94725.66;;;3.20;100.00
68889;BME280;55930;47.412;8.790;2023-12-20T01:58:39;94733.81;;;3.26;100.00
68889;BME280;55930;47.412;8.790;2023-12-20T02:02:03;94722.50;;;3.29;100.00
68889;BME280;55930;47.412;8.790;2023-12-20T02:05:24;94719.47;;;3.30;100.00
68889;BME280;55930;47.412;8.790;2023-12-20T02:08:45;94723.00;;;3.24;100.00
68889;BME280;55930;47.412;8.790;2023-12-20T02:12:06;94718.97;;;3.19;100.00
68889;BME280;55930;47.412;8.790;2023-12-20T02:15:26;94724.13;;;3.23;100.00
68889;BME280;55930;47.412;8.790;2023-12-20T02:18:46;94723.31;;;3.26;100.00
68889;BME280;55930;47.412;8.790;2023-12-20T02:22:10;94736.84;;;3.24;100.00
68889;BME280;55930;47.412;8.790;2023-12-20T02:25:31;94733.47;;;3.24;100.00
68889;BME280;55930;47.412;8.790;2023-12-20T02:28:52;94734.63;;;3.23;100.00
68889;BME280;55930;47.412;8.790;2023-12-20T02:32:12;94726.84;;;3.19;100.00
68889;BME280;55930;47.412;8.790;2023-12-20T02:35:33;94714.13;;;3.18;100.00
68889;BME280;55930;47.412;8.790;2023-12-20T02:38:53;94723.88;;;3.17;100.00
68889;BME280;55930;47.412;8.790;2023-12-20T02:42:13;94733.69;;;3.13;100.00
68889;BME280;55930;47.412;8.790;2023-12-20T02:45:36;94727.78;;;3.09;100.00
68889;BME280;55930;47.412;8.790;2023-12-20T02:48:58;94729.28;;;3.10;100.00
68889;BME280;55930;47.412;8.790;2023-12-20T02:52:24;94740.06;;;3.12;100.00
68889;BME280;55930;47.412;8.790;2023-12-20T02:55:47;94738.34;;;3.05;100.00
68889;BME280;55930;47.412;8.790;2023-12-20T02:59:10;94754.13;;;3.02;100.00
68889;BME280;55930;47.412;8.790;2023-12-20T03:02:30;94756.28;;;2.87;100.00
68889;BME280;55930;47.412;8.790;2023-12-20T03:05:53;94768.22;;;2.88;100.00
68889;BME280;55930;47.412;8.790;2023-12-20T03:09:13;94757.50;;;2.83;100.00
68889;BME280;55930;47.412;8.790;2023-12-20T03:12:34;94765.44;;;2.79;100.00
68889;BME280;55930;47.412;8.790;2023-12-20T03:15:54;94766.66;;;2.51;100.00
68889;BME280;55930;47.412;8.790;2023-12-20T03:19:17;94775.53;;;2.57;100.00
68889;BME280;55930;47.412;8.790;2023-12-20T03:22:38;94789.88;;;2.49;100.00
68889;BME280;55930;47.412;8.790;2023-12-20T03:25:59;94787.72;;;2.44;100.00
68889;BME280;55930;47.412;8.790;2023-12-20T03:29:19;94806.94;;;2.57;100.00
68889;BME280;55930;47.412;8.790;2023-12-20T03:32:40;94801.44;;;2.52;100.00
68889;BME280;55930;47.412;8.790;2023-12-20T03:36:00;94788.81;;;2.47;100.00
68889;BME280;55930;47.412;8.790;2023-12-20T03:39:23;94786.25;;;2.43;100.00
68889;BME280;55930;47.412;8.790;2023-12-20T03:42:43;94796.59;;;2.50;100.00
68889;BME280;55930;47.412;8.790;2023-12-20T03:46:03;94786.53;;;2.49;100.00
68889;BME280;55930;47.412;8.790;2023-12-20T03:49:24;94785.00;;;2.51;100.00
68889;BME280;55930;47.412;8.790;2023-12-20T03:52:44;94790.09;;;2.58;100.00
68889;BME280;55930;47.412;8.790;2023-12-20T03:56:05;94788.34;;;2.52;100.00
68889;BME280;55930;47.412;8.790;2023-12-20T03:59:25;94794.31;;;2.52;100.00
68889;BME280;55930;47.412;8.790;2023-12-20T04:02:46;94800.19;;;2.60;100.00
68889;BME280;55930;47.412;8.790;2023-12-20T04:06:06;94801.28;;;2.62;100.00
68889;BME280;55930;47.412;8.790;2023-12-20T04:09:26;94810.94;;;2.65;100.00
68889;BME280;55930;47.412;8.790;2023-12-20T04:12:47;94809.31;;;2.72;100.00
68889;BME280;55930;47.412;8.790;2023-12-20T04:16:07;94804.41;;;2.74;100.00
68889;BME280;55930;47.412;8.790;2023-12-20T04:19:28;94806.25;;;2.77;100.00
68889;BME280;55930;47.412;8.790;2023-12-20T04:22:48;94803.63;;;2.77;100.00
68889;BME280;55930;47.412;8.790;2023-12-20T04:26:11;94810.41;;;2.74;100.00
68889;BME280;55930;47.412;8.790;2023-12-20T04:29:31;94818.59;;;2.76;100.00
68889;BME280;55930;47.412;8.790;2023-12-20T04:32:52;94819.06;;;2.71;100.00
68889;BME280;55930;47.412;8.790;2023-12-20T04:36:12;94821.56;;;2.78;100.00
68889;BME280;55930;47.412;8.790;2023-12-20T04:39:32;94829.00;;;2.80;100.00
68889;BME280;55930;47.412;8.790;2023-12-20T04:42:53;94839.81;;;2.82;100.00
68889;BME280;55930;47.412;8.790;2023-12-20T04:46:13;94836.06;;;2.83;100.00
68889;BME280;55930;47.412;8.790;2023-12-20T04:49:34;94846.69;;;2.76;100.00
68889;BME280;55930;47.412;8.790;2023-12-20T04:52:54;94849.16;;;2.83;100.00
68889;BME280;55930;47.412;8.790;2023-12-20T04:56:15;94856.63;;;2.84;100.00
68889;BME280;55930;47.412;8.790;2023-12-20T04:59:35;94849.97;;;2.80;100.00
68889;BME280;55930;47.412;8.790;2023-12-20T05:02:56;94855.78;;;2.91;100.00
68889;BME280;55930;47.412;8.790;2023-12-20T05:06:18;94863.00;;;2.83;100.00
68889;BME280;55930;47.412;8.790;2023-12-20T05:09:38;94867.38;;;2.90;100.00
68889;BME280;55930;47.412;8.790;2023-12-20T05:12:58;94871.00;;;2.96;100.00
68889;BME280;55930;47.412;8.790;2023-12-20T05:16:20;94869.88;;;2.97;100.00
68889;BME280;55930;47.412;8.790;2023-12-20T05:19:40;94869.47;;;2.98;100.00
68889;BME280;55930;47.412;8.790;2023-12-20T05:23:01;94860.53;;;2.96;100.00
68889;BME280;55930;47.412;8.790;2023-12-20T05:26:21;94870.56;;;3.01;100.00
68889;BME280;55930;47.412;8.790;2023-12-20T05:29:41;94872.38;;;3.04;100.00
68889;BME280;55930;47.412;8.790;2023-12-20T05:33:02;94866.34;;;3.07;100.00
68889;BME280;55930;47.412;8.790;2023-12-20T05:36:22;94876.34;;;3.12;100.00
68889;BME280;55930;47.412;8.790;2023-12-20T05:39:43;94880.13;;;3.11;100.00
68889;BME280;55930;47.412;8.790;2023-12-20T05:43:03;94889.75;;;3.18;100.00
68889;BME280;55930;47.412;8.790;2023-12-20T05:46:24;94886.31;;;3.21;100.00
68889;BME280;55930;47.412;8.790;2023-12-20T05:49:45;94893.78;;;3.22;100.00
68889;BME280;55930;47.412;8.790;2023-12-20T05:53:05;94889.66;;;3.21;100.00
68889;BME280;55930;47.412;8.790;2023-12-20T05:56:26;94902.72;;;3.25;100.00
68889;BME280;55930;47.412;8.790;2023-12-20T05:59:47;94900.84;;;3.25;100.00
68889;BME280;55930;47.412;8.790;2023-12-20T06:03:08;94899.22;;;3.31;100.00
68889;BME280;55930;47.412;8.790;2023-12-20T06:06:28;94892.44;;;3.34;100.00
68889;BME280;55930;47.412;8.790;2023-12-20T06:09:49;94898.44;;;3.34;100.00
68889;BME280;55930;47.412;8.790;2023-12-20T06:13:09;94890.56;;;3.34;100.00
68889;BME280;55930;47.412;8.790;2023-12-20T06:16:30;94906.97;;;3.38;100.00
68889;BME280;55930;47.412;8.790;2023-12-20T06:19:50;94908.03;;;3.41;100.00
68889;BME280;55930;47.412;8.790;2023-12-20T06:23:10;94902.41;;;3.42;100.00
68889;BME280;55930;47.412;8.790;2023-12-20T06:26:31;94911.06;;;3.39;100.00
68889;BME280;55930;47.412;8.790;2023-12-20T06:29:51;94902.19;;;3.33;100.00
68889;BME280;55930;47.412;8.790;2023-12-20T06:33:11;94915.63;;;3.35;100.00
68889;BME280;55930;47.412;8.790;2023-12-20T06:36:32;94911.13;;;3.36;100.00
68889;BME280;55930;47.412;8.790;2023-12-20T06:39:53;94909.22;;;3.36;100.00
68889;BME280;55930;47.412;8.790;2023-12-20T06:43:13;94913.81;;;3.32;100.00
68889;BME280;55930;47.412;8.790;2023-12-20T06:46:34;94925.84;;;3.30;100.00
68889;BME280;55930;47.412;8.790;2023-12-20T06:49:54;94923.22;;;3.30;100.00
68889;BME280;55930;47.412;8.790;2023-12-20T06:53:14;94923.56;;;3.32;100.00
68889;BME280;55930;47.412;8.790;2023-12-20T06:56:35;94924.31;;;3.32;100.00
68889;BME280;55930;47.412;8.790;2023-12-20T06:59:55;94936.19;;;3.37;100.00
68889;BME280;55930;47.412;8.790;2023-12-20T07:03:16;94930.63;;;3.35;100.00
68889;BME280;55930;47.412;8.790;2023-12-20T07:06:36;94934.41;;;3.34;100.00
68889;BME280;55930;47.412;8.790;2023-12-20T07:09:57;94939.97;;;3.36;100.00
68889;BME280;55930;47.412;8.790;2023-12-20T07:13:17;94933.19;;;3.38;100.00
68889;BME280;55930;47.412;8.790;2023-12-20T07:16:38;94933.88;;;3.42;100.00
68889;BME280;55930;47.412;8.790;2023-12-20T07:19:58;94939.44;;;3.44;100.00
68889;BME280;55930;47.412;8.790;2023-12-20T07:23:19;94929.69;;;3.45;100.00
68889;BME280;55930;47.412;8.790;2023-12-20T07:26:40;94943.53;;;3.45;100.00
68889;BME280;55930;47.412;8.790;2023-12-20T07:30:00;94946.16;;;3.45;100.00
68889;BME280;55930;47.412;8.790;2023-12-20T07:33:23;94956.59;;;3.49;100.00
68889;BME280;55930;47.412;8.790;2023-12-20T07:36:43;94955.84;;;3.49;100.00
68889;BME280;55930;47.412;8.790;2023-12-20T07:40:04;94958.47;;;3.49;100.00
68889;BME280;55930;47.412;8.790;2023-12-20T07:43:25;94962.25;;;3.47;100.00
68889;BME280;55930;47.412;8.790;2023-12-20T07:46:45;94958.41;;;3.52;100.00
68889;BME280;55930;47.412;8.790;2023-12-20T07:50:06;94959.47;;;3.55;100.00
68889;BME280;55930;47.412;8.790;2023-12-20T07:53:27;94962.91;;;3.52;100.00
68889;BME280;55930;47.412;8.790;2023-12-20T07:56:49;94971.94;;;3.51;100.00
68889;BME280;55930;47.412;8.790;2023-12-20T08:00:10;94982.88;;;3.45;100.00
68889;BME280;55930;47.412;8.790;2023-12-20T08:03:31;94978.72;;;3.48;100.00
68889;BME280;55930;47.412;8.790;2023-12-20T08:06:51;94976.88;;;3.45;100.00
68889;BME280;55930;47.412;8.790;2023-12-20T08:10:12;94972.38;;;3.45;100.00
68889;BME280;55930;47.412;8.790;2023-12-20T08:13:33;94984.91;;;3.58;100.00
68889;BME280;55930;47.412;8.790;2023-12-20T08:16:53;94987.59;;;3.54;100.00
68889;BME280;55930;47.412;8.790;2023-12-20T08:20:13;94978.84;;;3.61;100.00
68889;BME280;55930;47.412;8.790;2023-12-20T08:23:37;94987.00;;;3.66;100.00
68889;BME280;55930;47.412;8.790;2023-12-20T08:26:57;94988.56;;;3.64;100.00
68889;BME280;55930;47.412;8.790;2023-12-20T08:30:17;94990.81;;;3.62;100.00
68889;BME280;55930;47.412;8.790;2023-12-20T08:33:40;94983.34;;;3.60;100.00
68889;BME280;55930;47.412;8.790;2023-12-20T08:37:06;94983.97;;;3.68;100.00
68889;BME280;55930;47.412;8.790;2023-12-20T08:40:26;94985.94;;;3.64;100.00
68889;BME280;55930;47.412;8.790;2023-12-20T08:43:47;94990.78;;;3.65;100.00
68889;BME280;55930;47.412;8.790;2023-12-20T08:47:07;94991.38;;;3.73;100.00
68889;BME280;55930;47.412;8.790;2023-12-20T08:50:28;94995.94;;;3.69;100.00
68889;BME280;55930;47.412;8.790;2023-12-20T08:53:49;95003.28;;;3.77;100.00
68889;BME280;55930;47.412;8.790;2023-12-20T08:57:09;94983.84;;;3.75;100.00
68889;BME280;55930;47.412;8.790;2023-12-20T09:00:30;94984.31;;;3.70;100.00
68889;BME280;55930;47.412;8.790;2023-12-20T09:03:50;94985.13;;;3.87;100.00
68889;BME280;55930;47.412;8.790;2023-12-20T09:07:25;94984.13;;;3.80;100.00
68889;BME280;55930;47.412;8.790;2023-12-20T09:10:46;94985.66;;;3.78;100.00
68889;BME280;55930;47.412;8.790;2023-12-20T09:14:07;94986.34;;;3.82;100.00
68889;BME280;55930;47.412;8.790;2023-12-20T09:17:27;94982.97;;;3.81;100.00
68889;BME280;55930;47.412;8.790;2023-12-20T09:20:47;94994.88;;;3.86;100.00
68889;BME280;55930;47.412;8.790;2023-12-20T09:24:08;94988.97;;;3.82;100.00
68889;BME280;55930;47.412;8.790;2023-12-20T09:27:29;94998.59;;;3.89;100.00
68889;BME280;55930;47.412;8.790;2023-12-20T09:30:49;94994.09;;;3.89;100.00
68889;BME280;55930;47.412;8.790;2023-12-20T09:34:10;94994.41;;;3.91;100.00
68889;BME280;55930;47.412;8.790;2023-12-20T09:37:31;94992.59;;;3.88;100.00
68889;BME280;55930;47.412;8.790;2023-12-20T09:40:51;94993.00;;;3.87;100.00
68889;BME280;55930;47.412;8.790;2023-12-20T09:44:15;94995.88;;;3.92;100.00
68889;BME280;55930;47.412;8.790;2023-12-20T09:47:35;94996.09;;;3.81;100.00
68889;BME280;55930;47.412;8.790;2023-12-20T09:50:56;94993.00;;;3.87;100.00
68889;BME280;55930;47.412;8.790;2023-12-20T09:54:17;94991.03;;;4.10;100.00
68889;BME280;55930;47.412;8.790;2023-12-20T09:57:39;94988.66;;;4.16;100.00
68889;BME280;55930;47.412;8.790;2023-12-20T10:00:59;94992.88;;;4.13;100.00
68889;BME280;55930;47.412;8.790;2023-12-20T10:04:20;94995.81;;;4.15;100.00
68889;BME280;55930;47.412;8.790;2023-12-20T10:07:41;94996.13;;;4.17;100.00
68889;BME280;55930;47.412;8.790;2023-12-20T10:11:01;94997.50;;;4.06;100.00
68889;BME280;55930;47.412;8.790;2023-12-20T10:14:24;95002.81;;;4.02;100.00
68889;BME280;55930;47.412;8.790;2023-12-20T10:17:44;94986.72;;;4.00;100.00
68889;BME280;55930;47.412;8.790;2023-12-20T10:21:07;94993.84;;;4.00;100.00
68889;BME280;55930;47.412;8.790;2023-12-20T10:24:31;94977.38;;;3.99;100.00
68889;BME280;55930;47.412;8.790;2023-12-20T10:31:34;94959.53;;;4.10;100.00
68889;BME280;55930;47.412;8.790;2023-12-20T10:34:58;94958.34;;;3.95;100.00
68889;BME280;55930;47.412;8.790;2023-12-20T10:38:19;94957.72;;;4.07;100.00
68889;BME280;55930;47.412;8.790;2023-12-20T10:41:40;94960.16;;;3.98;100.00
68889;BME280;55930;47.412;8.790;2023-12-20T10:45:02;94956.66;;;4.05;100.00
68889;BME280;55930;47.412;8.790;2023-12-20T10:48:22;94955.44;;;4.09;100.00
68889;BME280;55930;47.412;8.790;2023-12-20T10:51:49;94945.66;;;4.10;100.00
68889;BME280;55930;47.412;8.790;2023-12-20T10:55:14;94941.56;;;4.09;100.00
68889;BME280;55930;47.412;8.790;2023-12-20T10:58:37;94940.00;;;4.11;100.00
68889;BME280;55930;47.412;8.790;2023-12-20T11:02:05;94931.66;;;4.16;100.00
68889;BME280;55930;47.412;8.790;2023-12-20T11:05:33;94928.53;;;4.05;100.00
68889;BME280;55930;47.412;8.790;2023-12-20T11:09:22;94925.94;;;4.21;100.00
68889;BME280;55930;47.412;8.790;2023-12-20T11:12:54;94927.47;;;4.19;100.00
68889;BME280;55930;47.412;8.790;2023-12-20T11:16:17;94929.63;;;4.24;100.00
68889;BME280;55930;47.412;8.790;2023-12-20T11:20:04;94926.59;;;4.26;100.00
68889;BME280;55930;47.412;8.790;2023-12-20T11:23:25;94920.78;;;4.34;100.00
68889;BME280;55930;47.412;8.790;2023-12-20T11:26:49;94918.31;;;4.27;100.00
68889;BME280;55930;47.412;8.790;2023-12-20T11:30:11;94927.91;;;4.34;100.00
68889;BME280;55930;47.412;8.790;2023-12-20T11:33:36;94924.38;;;4.40;100.00
68889;BME280;55930;47.412;8.790;2023-12-20T11:36:59;94924.75;;;4.58;100.00
68889;BME280;55930;47.412;8.790;2023-12-20T11:40:20;94918.91;;;4.51;100.00
68889;BME280;55930;47.412;8.790;2023-12-20T11:43:42;94923.75;;;4.52;100.00
68889;BME280;55930;47.412;8.790;2023-12-20T11:47:05;94929.66;;;4.73;100.00
68889;BME280;55930;47.412;8.790;2023-12-20T11:50:27;94916.34;;;4.96;100.00
68889;BME280;55930;47.412;8.790;2023-12-20T11:53:51;94929.81;;;4.82;100.00
68889;BME280;55930;47.412;8.790;2023-12-20T11:57:13;94927.84;;;5.18;100.00
68889;BME280;55930;47.412;8.790;2023-12-20T12:00:33;94922.09;;;5.07;100.00
68889;BME280;55930;47.412;8.790;2023-12-20T12:04:04;94917.81;;;5.13;100.00
68889;BME280;55930;47.412;8.790;2023-12-20T12:07:25;94920.03;;;5.15;100.00
68889;BME280;55930;47.412;8.790;2023-12-20T12:10:48;94913.84;;;5.21;100.00
68889;BME280;55930;47.412;8.790;2023-12-20T12:14:08;94912.00;;;4.89;100.00
68889;BME280;55930;47.412;8.790;2023-12-20T12:17:31;94906.25;;;4.94;100.00
68889;BME280;55930;47.412;8.790;2023-12-20T12:21:00;94907.72;;;4.79;100.00
68889;BME280;55930;47.412;8.790;2023-12-20T12:24:22;94906.50;;;4.68;100.00
68889;BME280;55930;47.412;8.790;2023-12-20T12:27:43;94902.47;;;4.79;100.00
68889;BME280;55930;47.412;8.790;2023-12-20T12:31:03;94903.66;;;4.62;100.00
68889;BME280;55930;47.412;8.790;2023-12-20T12:34:27;94901.50;;;4.41;100.00
68889;BME280;55930;47.412;8.790;2023-12-20T12:37:48;94898.53;;;4.22;100.00
68889;BME280;55930;47.412;8.790;2023-12-20T12:41:12;94896.31;;;4.21;100.00
68889;BME280;55930;47.412;8.790;2023-12-20T12:44:33;94900.19;;;4.49;100.00
68889;BME280;55930;47.412;8.790;2023-12-20T12:47:53;94900.75;;;4.40;100.00
68889;BME280;55930;47.412;8.790;2023-12-20T12:51:15;94909.31;;;4.44;100.00
68889;BME280;55930;47.412;8.790;2023-12-20T12:54:35;94906.19;;;4.66;100.00
68889;BME280;55930;47.412;8.790;2023-12-20T12:57:56;94906.59;;;4.80;100.00
68889;BME280;55930;47.412;8.790;2023-12-20T13:01:17;94908.97;;;4.75;100.00
68889;BME280;55930;47.412;8.790;2023-12-20T13:04:37;94899.44;;;5.55;100.00
68889;BME280;55930;47.412;8.790;2023-12-20T13:07:58;94903.13;;;5.28;100.00
68889;BME280;55930;47.412;8.790;2023-12-20T13:11:18;94896.63;;;5.04;100.00
68889;BME280;55930;47.412;8.790;2023-12-20T13:14:39;94897.31;;;4.76;100.00
68889;BME280;55930;47.412;8.790;2023-12-20T13:18:03;94893.69;;;5.02;100.00
68889;BME280;55930;47.412;8.790;2023-12-20T13:21:24;94892.69;;;5.83;100.00
68889;BME280;55930;47.412;8.790;2023-12-20T13:24:45;94880.91;;;7.76;100.00
68889;BME280;55930;47.412;8.790;2023-12-20T13:28:05;94842.44;;;10.66;100.00
68889;BME280;55930;47.412;8.790;2023-12-20T13:31:27;94830.31;;;15.65;80.10
68889;BME280;55930;47.412;8.790;2023-12-20T13:34:47;94842.75;;;16.24;61.61
68889;BME280;55930;47.412;8.790;2023-12-20T13:38:07;94829.28;;;8.15;85.08
68889;BME280;55930;47.412;8.790;2023-12-20T13:41:28;94849.19;;;6.54;100.00
68889;BME280;55930;47.412;8.790;2023-12-20T13:44:48;94864.34;;;5.87;100.00
68889;BME280;55930;47.412;8.790;2023-12-20T13:48:11;94880.41;;;5.63;100.00
68889;BME280;55930;47.412;8.790;2023-12-20T13:51:31;94875.28;;;5.31;100.00
68889;BME280;55930;47.412;8.790;2023-12-20T13:54:52;94871.28;;;5.26;100.00
68889;BME280;55930;47.412;8.790;2023-12-20T13:58:12;94876.75;;;7.22;100.00
68889;BME280;55930;47.412;8.790;2023-12-20T14:01:32;94860.47;;;7.67;100.00
68889;BME280;55930;47.412;8.790;2023-12-20T14:04:53;94863.47;;;5.64;100.00
68889;BME280;55930;47.412;8.790;2023-12-20T14:08:19;94868.72;;;5.23;100.00
68889;BME280;55930;47.412;8.790;2023-12-20T14:11:40;94877.72;;;5.09;100.00
68889;BME280;55930;47.412;8.790;2023-12-20T14:15:04;94892.31;;;4.65;100.00
68889;BME280;55930;47.412;8.790;2023-12-20T14:18:29;94896.75;;;4.68;100.00
68889;BME280;55930;47.412;8.790;2023-12-20T14:21:50;94889.03;;;4.61;100.00
68889;BME280;55930;47.412;8.790;2023-12-20T14:25:11;94896.75;;;4.52;100.00
68889;BME280;55930;47.412;8.790;2023-12-20T14:28:32;94894.00;;;4.39;100.00
68889;BME280;55930;47.412;8.790;2023-12-20T14:31:53;94909.84;;;4.19;100.00
68889;BME280;55930;47.412;8.790;2023-12-20T14:35:13;94910.47;;;3.71;100.00
68889;BME280;55930;47.412;8.790;2023-12-20T14:38:34;94914.31;;;3.67;100.00
68889;BME280;55930;47.412;8.790;2023-12-20T14:41:54;94919.41;;;3.54;100.00
68889;BME280;55930;47.412;8.790;2023-12-20T14:45:15;94925.03;;;3.53;100.00
68889;BME280;55930;47.412;8.790;2023-12-20T14:48:36;94929.16;;;3.34;100.00
68889;BME280;55930;47.412;8.790;2023-12-20T14:51:58;94932.03;;;3.39;100.00
68889;BME280;55930;47.412;8.790;2023-12-20T14:55:19;94925.91;;;3.46;100.00
68889;BME280;55930;47.412;8.790;2023-12-20T14:58:40;94927.72;;;3.29;100.00
68889;BME280;55930;47.412;8.790;2023-12-20T15:02:02;94918.53;;;2.98;100.00
68889;BME280;55930;47.412;8.790;2023-12-20T15:05:24;94921.03;;;2.82;100.00
68889;BME280;55930;47.412;8.790;2023-12-20T15:08:45;94930.44;;;2.79;100.00
68889;BME280;55930;47.412;8.790;2023-12-20T15:12:06;94934.75;;;2.66;100.00
68889;BME280;55930;47.412;8.790;2023-12-20T15:15:26;94939.97;;;2.43;100.00
68889;BME280;55930;47.412;8.790;2023-12-20T15:18:49;94940.91;;;2.29;100.00
68889;BME280;55930;47.412;8.790;2023-12-20T15:22:09;94940.94;;;2.25;100.00
68889;BME280;55930;47.412;8.790;2023-12-20T15:25:30;94944.84;;;2.14;100.00
68889;BME280;55930;47.412;8.790;2023-12-20T15:28:50;94936.66;;;2.12;100.00
68889;BME280;55930;47.412;8.790;2023-12-20T15:32:11;94939.78;;;2.00;100.00
68889;BME280;55930;47.412;8.790;2023-12-20T15:35:31;94932.72;;;1.97;100.00
68889;BME280;55930;47.412;8.790;2023-12-20T15:38:52;94939.56;;;1.87;100.00
68889;BME280;55930;47.412;8.790;2023-12-20T15:42:12;94952.44;;;1.74;100.00
68889;BME280;55930;47.412;8.790;2023-12-20T15:45:33;94951.38;;;1.68;100.00
68889;BME280;55930;47.412;8.790;2023-12-20T15:48:53;94956.84;;;1.81;100.00
68889;BME280;55930;47.412;8.790;2023-12-20T15:52:13;94948.41;;;1.66;100.00
68889;BME280;55930;47.412;8.790;2023-12-20T15:55:34;94951.13;;;1.56;100.00
68889;BME280;55930;47.412;8.790;2023-12-20T15:58:54;94953.25;;;1.68;100.00
68889;BME280;55930;47.412;8.790;2023-12-20T16:02:14;94960.91;;;1.51;100.00
68889;BME280;55930;47.412;8.790;2023-12-20T16:05:37;94970.41;;;1.35;100.00
68889;BME280;55930;47.412;8.790;2023-12-20T16:08:58;94977.84;;;1.36;100.00
68889;BME280;55930;47.412;8.790;2023-12-20T16:12:18;94980.44;;;1.36;100.00
68889;BME280;55930;47.412;8.790;2023-12-20T16:15:38;94985.59;;;1.47;100.00
68889;BME280;55930;47.412;8.790;2023-12-20T16:18:59;94977.88;;;1.33;100.00
68889;BME280;55930;47.412;8.790;2023-12-20T16:22:19;94992.53;;;1.23;100.00
68889;BME280;55930;47.412;8.790;2023-12-20T16:25:39;94987.06;;;1.07;100.00
68889;BME280;55930;47.412;8.790;2023-12-20T16:29:00;94993.72;;;1.15;100.00
68889;BME280;55930;47.412;8.790;2023-12-20T16:32:20;94994.00;;;1.24;100.00
68889;BME280;55930;47.412;8.790;2023-12-20T16:35:41;94993.03;;;1.07;100.00
68889;BME280;55930;47.412;8.790;2023-12-20T16:39:02;94985.94;;;1.08;100.00
68889;BME280;55930;47.412;8.790;2023-12-20T16:42:23;94986.81;;;0.91;100.00
68889;BME280;55930;47.412;8.790;2023-12-20T16:45:43;94994.91;;;1.07;100.00
68889;BME280;55930;47.412;8.790;2023-12-20T16:49:03;94997.13;;;1.08;100.00
68889;BME280;55930;47.412;8.790;2023-12-20T16:52:24;95004.84;;;1.23;100.00
68889;BME280;55930;47.412;8.790;2023-12-20T16:55:44;95004.09;;;1.22;100.00
68889;BME280;55930;47.412;8.790;2023-12-20T16:59:05;95007.06;;;1.28;100.00
68889;BME280;55930;47.412;8.790;2023-12-20T17:02:25;95002.16;;;1.33;100.00
68889;BME280;55930;47.412;8.790;2023-12-20T17:05:46;94989.44;;;1.35;100.00
68889;BME280;55930;47.412;8.790;2023-12-20T17:09:06;94986.50;;;1.30;100.00
68889;BME280;55930;47.412;8.790;2023-12-20T17:12:29;94972.00;;;1.25;100.00
68889;BME280;55930;47.412;8.790;2023-12-20T17:15:50;94974.28;;;1.20;100.00
68889;BME280;55930;47.412;8.790;2023-12-20T17:19:10;94972.91;;;1.04;100.00
68889;BME280;55930;47.412;8.790;2023-12-20T17:22:31;94984.50;;;1.03;100.00
68889;BME280;55930;47.412;8.790;2023-12-20T17:25:52;94989.63;;;1.14;100.00
68889;BME280;55930;47.412;8.790;2023-12-20T17:29:12;94987.63;;;0.81;100.00
68889;BME280;55930;47.412;8.790;2023-12-20T17:32:32;94988.28;;;0.95;100.00
68889;BME280;55930;47.412;8.790;2023-12-20T17:35:57;94976.75;;;0.93;100.00
68889;BME280;55930;47.412;8.790;2023-12-20T17:39:20;94992.94;;;0.70;100.00
68889;BME280;55930;47.412;8.790;2023-12-20T17:42:44;95002.66;;;0.69;100.00
68889;BME280;55930;47.412;8.790;2023-12-20T17:46:05;95001.03;;;0.86;100.00
68889;BME280;55930;47.412;8.790;2023-12-20T17:49:26;95005.16;;;0.84;100.00